Time;durP1;ratioP1;P1;durP2;ratioP2;P2;SDS_P1;SDS_P2;PMS_P1;PMS_P2;Temp;Humidity;BMP_temperature;BMP_pressure;BME280_temperature;BME280_humidity;BME280_pressure;Samples;Min_cycle;Max_cycle;Signal;HPM_P1;HPM_P2
2023/04/10 00:00:56;;;;;;;;;;;7.60;99.90;;;;;;4925126;29;19918;-69
2023/04/10 00:03:23;;;;;;;;;;;7.50;99.90;;;;;;4946550;29;19953;-69
2023/04/10 00:05:48;;;;;;;;;;;7.50;99.90;;;;;;4916748;29;19918;-69
2023/04/10 00:08:14;;;;;;;;;;;7.50;99.90;;;;;;4923366;29;19922;-69
2023/04/10 00:10:40;;;;;;;;;;;7.50;99.90;;;;;;4914604;29;19914;-69
2023/04/10 00:13:05;;;;;;;;;;;7.50;99.90;;;;;;4925076;29;19914;-69
2023/04/10 00:15:31;;;;;;;;;;;7.50;99.90;;;;;;4935269;29;19926;-68
2023/04/10 00:17:58;;;;;;;;;;;7.50;99.90;;;;;;4931594;29;19922;-69
2023/04/10 00:20:25;;;;;;;;;;;7.50;99.90;;;;;;4951803;28;20283;-69
2023/04/10 00:22:50;;;;;;;;;;;7.50;99.90;;;;;;4943405;29;20025;-69
2023/04/10 00:25:16;;;;;;;;;;;7.50;99.90;;;;;;4943512;29;20666;-69
2023/04/10 00:27:42;;;;;;;;;;;7.50;99.90;;;;;;4906769;29;19915;-69
2023/04/10 00:30:07;;;;;;;;;;;7.40;99.90;;;;;;4928707;29;19964;-69
2023/04/10 00:32:33;;;;;;;;;;;7.40;99.90;;;;;;4937681;29;20021;-69
2023/04/10 00:35:00;;;;;;;;;;;7.50;99.90;;;;;;4933433;29;19911;-69
2023/04/10 00:37:26;;;;;;;;;;;7.40;99.90;;;;;;4893548;29;20316;-69
2023/04/10 00:39:52;;;;;;;;;;;7.40;99.90;;;;;;4915709;29;19911;-69
2023/04/10 00:42:17;;;;;;;;;;;7.40;99.90;;;;;;4913347;29;19929;-68
2023/04/10 00:44:43;;;;;;;;;;;7.20;99.90;;;;;;4936353;29;19944;-69
2023/04/10 00:47:09;;;;;;;;;;;7.20;99.90;;;;;;4952824;28;19922;-69
2023/04/10 00:49:34;;;;;;;;;;;7.20;99.90;;;;;;4918160;29;19914;-69
2023/04/10 00:52:00;;;;;;;;;;;7.10;99.90;;;;;;4944662;29;19914;-69
2023/04/10 00:54:26;;;;;;;;;;;7.10;99.90;;;;;;4918415;29;19915;-69
2023/04/10 00:56:51;;;;;;;;;;;7.00;99.90;;;;;;4924426;29;19922;-69
2023/04/10 00:59:17;;;;;;;;;;;7.00;99.90;;;;;;4902599;29;20371;-68
2023/04/10 01:01:43;;;;;;;;;;;7.00;99.90;;;;;;4939586;29;19981;-69
2023/04/10 01:04:08;;;;;;;;;;;7.00;99.90;;;;;;4920193;29;20339;-68
2023/04/10 01:06:52;;;;;;;;;;;7.00;99.90;;;;;;4921389;29;19927;-69
2023/04/10 01:09:33;;;;;;;;;;;6.80;99.90;;;;;;4908367;29;19919;-68
2023/04/10 01:11:58;;;;;;;;;;;6.80;99.90;;;;;;4954232;28;19914;-69
2023/04/10 01:14:43;;;;;;;;;;;6.80;99.90;;;;;;4931174;29;19993;-69
2023/04/10 01:17:12;;;;;;;;;;;6.90;99.90;;;;;;4913738;29;19918;-68
2023/04/10 01:19:48;;;;;;;;;;;6.80;99.90;;;;;;4937046;29;20021;-68
2023/04/10 01:22:14;;;;;;;;;;;6.80;99.90;;;;;;4936614;29;19918;-69
2023/04/10 01:24:49;;;;;;;;;;;6.90;99.90;;;;;;4930986;29;19920;-69
2023/04/10 01:27:15;;;;;;;;;;;6.70;99.90;;;;;;4946187;28;19915;-69
2023/04/10 01:29:41;;;;;;;;;;;6.60;99.90;;;;;;4898238;29;19970;-69
2023/04/10 01:32:07;;;;;;;;;;;6.60;99.90;;;;;;4903029;29;19921;-69
2023/04/10 01:34:42;;;;;;;;;;;6.60;99.90;;;;;;4914831;29;19911;-69
2023/04/10 01:37:11;;;;;;;;;;;6.60;99.90;;;;;;4914604;29;19923;-69
2023/04/10 01:39:39;;;;;;;;;;;6.70;99.90;;;;;;4902496;29;20006;-69
2023/04/10 01:42:05;;;;;;;;;;;6.70;99.90;;;;;;4883261;29;20291;-69
2023/04/10 01:44:31;;;;;;;;;;;6.80;99.90;;;;;;4889638;29;19915;-69
2023/04/10 01:46:57;;;;;;;;;;;6.80;99.90;;;;;;4916521;29;19911;-69
2023/04/10 01:49:23;;;;;;;;;;;6.80;99.90;;;;;;4946556;28;19960;-69
2023/04/10 01:51:48;;;;;;;;;;;6.80;99.90;;;;;;4922305;29;19918;-69
2023/04/10 01:54:15;;;;;;;;;;;6.80;99.90;;;;;;4933199;29;19922;-69
2023/04/10 01:56:40;;;;;;;;;;;6.80;99.90;;;;;;4951632;28;19914;-69
2023/04/10 01:59:06;;;;;;;;;;;6.80;99.90;;;;;;4953862;28;19924;-69
2023/04/10 02:01:32;;;;;;;;;;;6.70;99.90;;;;;;4933572;29;20233;-69
2023/04/10 02:03:58;;;;;;;;;;;6.80;99.90;;;;;;4938492;29;20306;-69
2023/04/10 02:06:24;;;;;;;;;;;6.80;99.90;;;;;;4933751;29;20395;-69
2023/04/10 02:08:58;;;;;;;;;;;6.60;99.90;;;;;;4948238;28;19983;-68
2023/04/10 02:11:28;;;;;;;;;;;6.60;99.90;;;;;;4957213;28;19914;-69
2023/04/10 02:13:53;;;;;;;;;;;6.50;99.90;;;;;;4945881;28;19921;-69
2023/04/10 02:16:19;;;;;;;;;;;6.50;99.90;;;;;;4935088;29;19919;-69
2023/04/10 02:18:46;;;;;;;;;;;6.60;99.90;;;;;;4941307;29;19922;-69
2023/04/10 02:21:11;;;;;;;;;;;6.60;99.90;;;;;;4940633;29;19990;-69
2023/04/10 02:23:37;;;;;;;;;;;6.70;99.90;;;;;;4918757;29;20327;-69
2023/04/10 02:26:06;;;;;;;;;;;6.70;99.90;;;;;;4910789;29;19974;-69
2023/04/10 02:28:32;;;;;;;;;;;6.80;99.90;;;;;;4932717;29;19926;-69
2023/04/10 02:30:57;;;;;;;;;;;6.70;99.90;;;;;;4960454;28;19918;-69
2023/04/10 02:33:23;;;;;;;;;;;6.70;99.90;;;;;;4923043;29;19915;-68
2023/04/10 02:35:49;;;;;;;;;;;6.70;99.90;;;;;;4940825;29;19914;-69
2023/04/10 02:38:14;;;;;;;;;;;6.70;99.90;;;;;;4917856;29;20588;-69
2023/04/10 02:40:40;;;;;;;;;;;6.70;99.90;;;;;;4912088;29;20004;-69
2023/04/10 02:43:06;;;;;;;;;;;6.80;99.90;;;;;;4949178;29;19914;-68
2023/04/10 02:45:32;;;;;;;;;;;6.80;99.90;;;;;;4935789;29;19914;-69
2023/04/10 02:47:58;;;;;;;;;;;6.80;99.90;;;;;;4952757;28;19926;-69
2023/04/10 02:50:23;;;;;;;;;;;6.80;99.90;;;;;;4938445;29;19911;-69
2023/04/10 02:52:49;;;;;;;;;;;6.70;99.90;;;;;;4947497;28;19922;-69
2023/04/10 02:55:15;;;;;;;;;;;6.70;99.90;;;;;;4917990;29;19918;-68
2023/04/10 02:57:41;;;;;;;;;;;6.60;99.90;;;;;;4925154;29;20529;-68
2023/04/10 03:00:07;;;;;;;;;;;6.60;99.90;;;;;;4945173;29;19914;-68
2023/04/10 03:02:33;;;;;;;;;;;6.60;99.90;;;;;;4918181;29;19922;-68
2023/04/10 03:04:59;;;;;;;;;;;6.60;99.90;;;;;;4962028;28;20007;-68
2023/04/10 03:07:25;;;;;;;;;;;6.70;99.90;;;;;;4911120;29;19997;-69
2023/04/10 03:09:51;;;;;;;;;;;6.70;99.90;;;;;;4934961;29;20343;-68
2023/04/10 03:12:17;;;;;;;;;;;6.70;99.90;;;;;;4919319;29;19914;-69
2023/04/10 03:14:42;;;;;;;;;;;6.70;99.90;;;;;;4900003;29;19917;-69
2023/04/10 03:17:08;;;;;;;;;;;6.80;99.90;;;;;;4943186;29;20387;-68
2023/04/10 03:19:34;;;;;;;;;;;6.70;99.90;;;;;;4909100;29;19911;-68
2023/04/10 03:21:59;;;;;;;;;;;6.70;99.90;;;;;;4946766;29;19953;-68
2023/04/10 03:24:25;;;;;;;;;;;6.60;99.90;;;;;;4948967;29;20335;-68
2023/04/10 03:26:51;;;;;;;;;;;6.50;99.90;;;;;;4903572;29;19950;-68
2023/04/10 03:29:17;;;;;;;;;;;6.50;99.90;;;;;;4906907;29;19938;-69
2023/04/10 03:31:43;;;;;;;;;;;6.60;99.90;;;;;;4963036;28;19914;-68
2023/04/10 03:34:09;;;;;;;;;;;6.60;99.90;;;;;;4953642;28;19925;-68
2023/04/10 03:36:34;;;;;;;;;;;6.50;99.90;;;;;;4936784;29;19915;-68
2023/04/10 03:39:00;;;;;;;;;;;6.40;99.90;;;;;;4903105;29;19914;-68
2023/04/10 03:41:26;;;;;;;;;;;6.40;99.90;;;;;;4924926;29;19918;-68
2023/04/10 03:43:53;;;;;;;;;;;6.40;99.90;;;;;;4967400;28;19914;-69
2023/04/10 03:46:18;;;;;;;;;;;6.30;99.90;;;;;;4944352;29;20362;-68
2023/04/10 03:48:44;;;;;;;;;;;6.30;99.90;;;;;;4957916;28;19921;-68
2023/04/10 03:51:10;;;;;;;;;;;6.30;99.90;;;;;;4919824;29;20280;-68
2023/04/10 03:53:36;;;;;;;;;;;6.30;99.90;;;;;;4953015;28;19926;-68
2023/04/10 03:56:02;;;;;;;;;;;6.30;99.90;;;;;;4918866;29;19914;-69
2023/04/10 03:58:28;;;;;;;;;;;6.30;99.90;;;;;;4957588;28;19945;-68
2023/04/10 04:00:53;;;;;;;;;;;6.30;99.90;;;;;;4918416;29;19918;-68
2023/04/10 04:03:19;;;;;;;;;;;6.30;99.90;;;;;;4930758;29;19914;-69
2023/04/10 04:05:44;;;;;;;;;;;6.30;99.90;;;;;;4919282;29;19957;-70
2023/04/10 04:08:12;;;;;;;;;;;6.20;99.90;;;;;;4916535;29;20387;-70
2023/04/10 04:10:38;;;;;;;;;;;6.20;99.90;;;;;;4935340;29;19918;-71
2023/04/10 04:13:04;;;;;;;;;;;6.30;99.90;;;;;;4931817;29;19915;-72
2023/04/10 04:15:29;;;;;;;;;;;6.20;99.90;;;;;;4953502;29;20324;-69
2023/04/10 04:17:55;;;;;;;;;;;6.20;99.90;;;;;;4952593;29;19928;-69
2023/04/10 04:20:21;;;;;;;;;;;6.30;99.90;;;;;;4930762;29;19941;-68
2023/04/10 04:22:47;;;;;;;;;;;6.30;99.90;;;;;;4940758;29;20312;-68
2023/04/10 04:25:12;;;;;;;;;;;6.30;99.90;;;;;;4940517;29;19959;-68
2023/04/10 04:27:38;;;;;;;;;;;6.30;99.90;;;;;;4938541;29;20004;-68
2023/04/10 04:30:05;;;;;;;;;;;6.20;99.90;;;;;;4960998;28;19921;-68
2023/04/10 04:32:30;;;;;;;;;;;6.20;99.90;;;;;;4920486;29;19914;-68
2023/04/10 04:34:56;;;;;;;;;;;6.10;99.90;;;;;;4924350;29;20379;-68
2023/04/10 04:37:22;;;;;;;;;;;6.10;99.90;;;;;;4920718;29;19914;-68
2023/04/10 04:39:47;;;;;;;;;;;6.10;99.90;;;;;;4952113;29;19925;-69
2023/04/10 04:42:13;;;;;;;;;;;6.00;99.90;;;;;;4927065;29;19982;-68
2023/04/10 04:44:38;;;;;;;;;;;6.10;99.90;;;;;;4936512;29;19918;-68
2023/04/10 04:47:05;;;;;;;;;;;6.10;99.90;;;;;;4942311;29;19915;-68
2023/04/10 04:49:30;;;;;;;;;;;6.00;99.90;;;;;;4937350;29;19915;-69
2023/04/10 04:51:56;;;;;;;;;;;6.10;99.90;;;;;;4923851;29;19914;-68
2023/04/10 04:54:22;;;;;;;;;;;6.20;99.90;;;;;;4921699;29;20606;-68
2023/04/10 04:56:47;;;;;;;;;;;6.10;99.90;;;;;;4917755;29;19919;-68
2023/04/10 04:59:13;;;;;;;;;;;6.10;99.90;;;;;;4942231;29;19915;-69
2023/04/10 05:01:38;;;;;;;;;;;6.20;99.90;;;;;;4942999;29;19926;-69
2023/04/10 05:04:04;;;;;;;;;;;6.10;99.90;;;;;;4927084;29;20157;-71
2023/04/10 05:06:30;;;;;;;;;;;6.10;99.90;;;;;;4935037;29;20209;-71
2023/04/10 05:08:56;;;;;;;;;;;6.10;99.90;;;;;;4916937;29;19961;-71
2023/04/10 05:11:21;;;;;;;;;;;6.10;99.90;;;;;;4885676;29;20316;-71
2023/04/10 05:13:47;;;;;;;;;;;6.10;99.90;;;;;;4914598;29;19922;-71
2023/04/10 05:16:13;;;;;;;;;;;6.00;99.90;;;;;;4907300;29;19914;-71
2023/04/10 05:18:39;;;;;;;;;;;6.10;99.90;;;;;;4918671;29;19918;-71
2023/04/10 05:21:05;;;;;;;;;;;6.10;99.90;;;;;;4934756;29;19918;-71
2023/04/10 05:23:31;;;;;;;;;;;6.10;99.90;;;;;;4949715;28;19985;-71
2023/04/10 05:25:57;;;;;;;;;;;6.10;99.90;;;;;;4942744;29;20320;-71
2023/04/10 05:28:22;;;;;;;;;;;6.20;99.90;;;;;;4929907;29;19922;-71
2023/04/10 05:30:48;;;;;;;;;;;6.20;99.90;;;;;;4958023;28;19919;-72
2023/04/10 05:33:13;;;;;;;;;;;6.20;99.90;;;;;;4919436;29;19951;-71
2023/04/10 05:35:39;;;;;;;;;;;6.10;99.90;;;;;;4923070;29;19972;-71
2023/04/10 05:38:05;;;;;;;;;;;6.10;99.90;;;;;;4945163;29;19914;-71
2023/04/10 05:40:30;;;;;;;;;;;6.20;99.90;;;;;;4947192;29;19914;-71
2023/04/10 05:42:56;;;;;;;;;;;6.30;99.90;;;;;;4917233;29;20614;-72
2023/04/10 05:45:22;;;;;;;;;;;6.30;99.90;;;;;;4923612;29;19941;-71
2023/04/10 05:47:47;;;;;;;;;;;6.40;99.90;;;;;;4904419;29;19989;-71
2023/04/10 05:50:13;;;;;;;;;;;6.50;99.90;;;;;;4901033;29;19926;-71
2023/04/10 05:52:39;;;;;;;;;;;6.50;99.90;;;;;;4938345;29;19914;-71
2023/04/10 05:55:04;;;;;;;;;;;6.60;99.90;;;;;;4900225;29;19922;-72
2023/04/10 05:57:30;;;;;;;;;;;6.70;99.90;;;;;;4910864;29;19914;-72
2023/04/10 05:59:56;;;;;;;;;;;6.70;99.90;;;;;;4906090;29;19945;-72
2023/04/10 06:02:21;;;;;;;;;;;6.80;99.90;;;;;;4924975;29;19919;-71
2023/04/10 06:04:47;;;;;;;;;;;6.90;99.90;;;;;;4923149;29;19987;-72
2023/04/10 06:07:13;;;;;;;;;;;7.00;99.90;;;;;;4905668;29;20078;-72
2023/04/10 06:09:38;;;;;;;;;;;7.00;99.90;;;;;;4944529;29;19914;-72
2023/04/10 06:12:04;;;;;;;;;;;7.10;99.90;;;;;;4956402;28;19915;-72
2023/04/10 06:14:29;;;;;;;;;;;7.20;99.90;;;;;;4958811;28;19946;-72
2023/04/10 06:16:55;;;;;;;;;;;7.30;99.90;;;;;;4956356;28;20341;-72
2023/04/10 06:19:21;;;;;;;;;;;7.40;99.90;;;;;;4939510;29;19987;-72
2023/04/10 06:21:46;;;;;;;;;;;7.50;99.90;;;;;;4906943;29;19942;-71
2023/04/10 06:24:13;;;;;;;;;;;7.50;99.90;;;;;;4919611;29;20415;-72
2023/04/10 06:26:38;;;;;;;;;;;7.60;99.90;;;;;;4920253;29;19922;-72
2023/04/10 06:29:04;;;;;;;;;;;7.70;99.90;;;;;;4900671;29;19914;-72
2023/04/10 06:31:33;;;;;;;;;;;7.80;99.90;;;;;;4900701;29;20355;-72
2023/04/10 06:33:59;;;;;;;;;;;7.90;99.90;;;;;;4900685;29;19978;-72
2023/04/10 06:36:25;;;;;;;;;;;8.00;99.90;;;;;;4915580;29;20263;-72
2023/04/10 06:38:51;;;;;;;;;;;8.10;99.90;;;;;;4942067;29;19914;-72
2023/04/10 06:41:17;;;;;;;;;;;8.20;99.90;;;;;;4917556;29;19981;-72
2023/04/10 06:43:42;;;;;;;;;;;8.30;99.90;;;;;;4952688;28;19911;-71
2023/04/10 06:46:08;;;;;;;;;;;8.40;99.90;;;;;;4909989;29;20001;-72
2023/04/10 06:48:34;;;;;;;;;;;8.50;99.90;;;;;;4919870;29;19973;-71
2023/04/10 06:50:59;;;;;;;;;;;8.60;99.90;;;;;;4915557;29;19993;-72
2023/04/10 06:53:26;;;;;;;;;;;8.70;99.90;;;;;;4893830;29;20264;-71
2023/04/10 06:55:51;;;;;;;;;;;8.80;99.90;;;;;;4947857;29;19918;-72
2023/04/10 06:58:17;;;;;;;;;;;9.00;99.90;;;;;;4935535;29;19942;-72
2023/04/10 07:00:43;;;;;;;;;;;9.00;99.90;;;;;;4956327;28;19961;-72
2023/04/10 07:03:08;;;;;;;;;;;9.20;99.90;;;;;;4925325;29;20358;-72
2023/04/10 07:05:34;;;;;;;;;;;9.20;99.90;;;;;;4937029;29;20395;-72
2023/04/10 07:07:59;;;;;;;;;;;9.40;99.90;;;;;;4940552;29;20314;-72
2023/04/10 07:10:25;;;;;;;;;;;9.40;99.90;;;;;;4954615;28;19914;-72
2023/04/10 07:12:51;;;;;;;;;;;9.50;99.90;;;;;;4919074;29;19915;-72
2023/04/10 07:15:16;;;;;;;;;;;9.60;99.90;;;;;;4963416;28;19949;-72
2023/04/10 07:17:42;;;;;;;;;;;9.70;99.90;;;;;;4916282;29;20220;-72
2023/04/10 07:20:08;;;;;;;;;;;9.70;99.90;;;;;;4910266;29;19930;-72
2023/04/10 07:22:34;;;;;;;;;;;9.80;99.90;;;;;;4907013;29;19930;-72
2023/04/10 07:24:59;;;;;;;;;;;9.90;99.90;;;;;;4921092;29;20388;-72
2023/04/10 07:27:26;;;;;;;;;;;9.90;99.90;;;;;;4925033;29;19911;-72
2023/04/10 07:29:53;;;;;;;;;;;10.00;99.90;;;;;;4919343;29;19919;-72
2023/04/10 07:32:18;;;;;;;;;;;10.10;99.90;;;;;;4904863;29;19954;-72
2023/04/10 07:34:44;;;;;;;;;;;10.20;99.90;;;;;;4907581;29;19988;-72
2023/04/10 07:37:10;;;;;;;;;;;10.20;99.90;;;;;;4908230;29;19914;-72
2023/04/10 07:39:35;;;;;;;;;;;10.30;99.90;;;;;;4918126;29;19923;-72
2023/04/10 07:42:01;;;;;;;;;;;10.40;99.90;;;;;;4913581;29;19977;-72
2023/04/10 07:44:27;;;;;;;;;;;10.50;99.90;;;;;;4922281;29;19914;-72
2023/04/10 07:46:53;;;;;;;;;;;10.50;99.90;;;;;;4913066;29;19915;-72
2023/04/10 07:49:18;;;;;;;;;;;10.50;99.90;;;;;;4922955;29;19930;-72
2023/04/10 07:51:44;;;;;;;;;;;10.60;99.90;;;;;;4928512;29;19925;-71
2023/04/10 07:54:10;;;;;;;;;;;10.60;99.90;;;;;;4919744;29;19997;-72
2023/04/10 07:56:37;;;;;;;;;;;10.70;99.90;;;;;;4927563;29;19914;-72
2023/04/10 07:59:02;;;;;;;;;;;10.70;99.90;;;;;;4922215;29;19925;-72
2023/04/10 08:01:28;;;;;;;;;;;10.80;99.90;;;;;;4942903;28;19927;-72
2023/04/10 08:03:55;;;;;;;;;;;10.80;99.90;;;;;;4959701;28;19970;-72
2023/04/10 08:06:20;;;;;;;;;;;10.90;99.90;;;;;;4948802;28;19919;-72
2023/04/10 08:08:46;;;;;;;;;;;11.00;99.90;;;;;;4922233;29;20296;-72
2023/04/10 08:11:24;;;;;;;;;;;11.10;99.90;;;;;;4925371;29;19918;-72
2023/04/10 08:13:51;;;;;;;;;;;11.10;99.90;;;;;;4954728;28;19930;-72
2023/04/10 08:16:23;;;;;;;;;;;11.20;99.90;;;;;;4935347;29;19919;-72
2023/04/10 08:18:50;;;;;;;;;;;11.30;99.90;;;;;;4921986;29;19962;-72
2023/04/10 08:21:15;;;;;;;;;;;11.30;99.50;;;;;;4959662;28;19922;-72
2023/04/10 08:23:41;;;;;;;;;;;11.40;99.50;;;;;;4927945;29;19914;-72
2023/04/10 08:26:07;;;;;;;;;;;11.50;99.50;;;;;;4916098;29;20033;-76
2023/04/10 08:28:33;;;;;;;;;;;11.70;99.20;;;;;;4925482;29;20239;-75
2023/04/10 08:30:58;;;;;;;;;;;11.70;99.70;;;;;;4924286;29;19914;-76
2023/04/10 08:33:24;;;;;;;;;;;11.90;99.40;;;;;;4913163;29;19914;-75
2023/04/10 08:35:50;;;;;;;;;;;12.00;99.60;;;;;;4930558;29;20316;-75
2023/04/10 08:38:16;;;;;;;;;;;12.10;98.60;;;;;;4916801;29;19925;-76
2023/04/10 08:40:43;;;;;;;;;;;12.10;98.10;;;;;;4927453;29;19998;-75
2023/04/10 08:43:08;;;;;;;;;;;12.40;98.30;;;;;;4906372;29;19950;-76
2023/04/10 08:45:34;;;;;;;;;;;12.30;96.70;;;;;;4917499;29;19923;-76
2023/04/10 08:48:04;;;;;;;;;;;12.20;96.80;;;;;;4938347;29;20648;-76
2023/04/10 08:50:30;;;;;;;;;;;12.20;96.10;;;;;;4918198;29;19914;-76
2023/04/10 08:52:56;;;;;;;;;;;12.30;96.00;;;;;;4915761;29;19997;-75
2023/04/10 08:55:22;;;;;;;;;;;12.30;96.30;;;;;;4913299;29;19974;-75
2023/04/10 08:57:47;;;;;;;;;;;12.40;96.60;;;;;;4892138;29;19970;-75
2023/04/10 09:00:13;;;;;;;;;;;12.40;96.30;;;;;;4931169;29;19998;-76
2023/04/10 09:02:40;;;;;;;;;;;12.50;96.70;;;;;;4927370;29;19918;-75
2023/04/10 09:05:09;;;;;;;;;;;12.50;97.20;;;;;;4901839;29;20221;-75
2023/04/10 09:07:34;;;;;;;;;;;12.70;97.10;;;;;;4947516;28;20684;-75
2023/04/10 09:10:00;;;;;;;;;;;12.80;96.80;;;;;;4896144;29;20001;-75
2023/04/10 09:12:26;;;;;;;;;;;12.80;95.80;;;;;;4941197;29;19997;-75
2023/04/10 09:14:52;;;;;;;;;;;12.80;96.90;;;;;;4956717;28;20338;-76
2023/04/10 09:17:21;;;;;;;;;;;12.90;96.90;;;;;;4891716;29;19914;-75
2023/04/10 09:19:47;;;;;;;;;;;13.00;97.50;;;;;;4938437;29;19925;-76
2023/04/10 09:22:13;;;;;;;;;;;13.10;97.60;;;;;;4947558;29;19922;-76
2023/04/10 09:24:39;;;;;;;;;;;13.10;98.20;;;;;;4944546;29;19977;-75
2023/04/10 09:27:05;;;;;;;;;;;13.20;97.60;;;;;;4945947;28;19965;-75
2023/04/10 09:29:40;;;;;;;;;;;13.30;98.00;;;;;;4940115;29;19919;-75
2023/04/10 09:32:06;;;;;;;;;;;13.50;97.90;;;;;;4956915;28;20006;-75
2023/04/10 09:34:31;;;;;;;;;;;13.60;97.30;;;;;;4933138;29;19996;-76
2023/04/10 09:36:58;;;;;;;;;;;13.80;97.00;;;;;;4968038;28;19925;-75
2023/04/10 09:39:34;;;;;;;;;;;13.70;95.80;;;;;;4939287;29;19922;-76
2023/04/10 09:42:00;;;;;;;;;;;13.80;95.10;;;;;;4957952;28;20324;-75
2023/04/10 09:44:30;;;;;;;;;;;13.80;94.80;;;;;;4949922;29;19914;-75
2023/04/10 09:46:56;;;;;;;;;;;13.90;95.50;;;;;;4947687;29;19914;-74
2023/04/10 09:49:22;;;;;;;;;;;14.00;94.20;;;;;;4890080;29;19915;-75
2023/04/10 09:51:48;;;;;;;;;;;14.10;93.80;;;;;;4950246;29;20320;-74
2023/04/10 09:54:14;;;;;;;;;;;14.20;93.00;;;;;;4953071;28;19914;-74
2023/04/10 09:56:40;;;;;;;;;;;14.40;92.10;;;;;;4919923;29;19926;-74
2023/04/10 09:59:09;;;;;;;;;;;14.40;91.80;;;;;;4918476;29;19915;-74
2023/04/10 10:01:35;;;;;;;;;;;14.50;92.00;;;;;;4915169;29;19918;-74
2023/04/10 10:04:01;;;;;;;;;;;14.50;92.00;;;;;;4923948;29;20323;-74
2023/04/10 10:06:28;;;;;;;;;;;14.50;91.20;;;;;;4946804;29;19914;-75
2023/04/10 10:09:05;;;;;;;;;;;14.50;91.60;;;;;;4931831;29;20345;-75
2023/04/10 10:11:32;;;;;;;;;;;14.70;92.00;;;;;;4924778;29;19925;-75
2023/04/10 10:13:59;;;;;;;;;;;14.90;91.60;;;;;;4902487;29;19925;-74
2023/04/10 10:16:33;;;;;;;;;;;14.80;91.00;;;;;;4939773;29;19943;-75
2023/04/10 10:19:09;;;;;;;;;;;14.90;88.60;;;;;;4919502;29;19931;-75
2023/04/10 10:21:35;;;;;;;;;;;15.00;90.00;;;;;;4907775;29;19968;-75
2023/04/10 10:24:01;;;;;;;;;;;15.00;89.40;;;;;;4928658;29;19997;-75
2023/04/10 10:26:30;;;;;;;;;;;15.40;90.60;;;;;;4927346;29;19914;-75
2023/04/10 10:28:56;;;;;;;;;;;15.60;87.60;;;;;;4950516;29;19976;-75
2023/04/10 10:31:23;;;;;;;;;;;15.50;86.80;;;;;;4914547;29;20522;-75
2023/04/10 10:33:50;;;;;;;;;;;15.60;88.90;;;;;;4960470;28;19938;-74
2023/04/10 10:36:17;;;;;;;;;;;15.80;88.90;;;;;;4947861;28;19921;-75
2023/04/10 10:38:45;;;;;;;;;;;15.70;86.10;;;;;;4946249;29;19921;-75
2023/04/10 10:41:16;;;;;;;;;;;15.80;85.70;;;;;;4928872;29;19929;-74
2023/04/10 10:44:11;;;;;;;;;;;15.80;85.40;;;;;;4946964;29;19941;-75
2023/04/10 10:46:46;;;;;;;;;;;15.90;86.00;;;;;;4940685;29;19922;-74
2023/04/10 10:49:12;;;;;;;;;;;16.00;85.10;;;;;;4923927;29;20008;-74
2023/04/10 10:51:47;;;;;;;;;;;16.10;85.00;;;;;;4963527;28;19966;-70
2023/04/10 10:54:29;;;;;;;;;;;16.20;84.40;;;;;;4919380;29;20014;-70
2023/04/10 10:56:54;;;;;;;;;;;16.10;83.40;;;;;;4904589;29;19917;-70
2023/04/10 10:59:49;;;;;;;;;;;16.10;80.20;;;;;;4924791;29;19911;-70
2023/04/10 11:02:15;;;;;;;;;;;16.10;82.10;;;;;;4936865;29;19918;-70
2023/04/10 11:04:45;;;;;;;;;;;16.40;82.90;;;;;;4920214;29;19957;-70
2023/04/10 11:07:10;;;;;;;;;;;16.50;82.60;;;;;;4951085;29;20243;-70
2023/04/10 11:09:43;;;;;;;;;;;16.40;83.00;;;;;;4918349;29;19915;-70
2023/04/10 11:12:08;;;;;;;;;;;16.60;82.90;;;;;;4887532;29;19930;-70
2023/04/10 11:14:34;;;;;;;;;;;16.80;82.90;;;;;;4906931;29;20510;-70
2023/04/10 11:17:00;;;;;;;;;;;16.80;82.50;;;;;;4919037;29;19914;-70
2023/04/10 11:19:27;;;;;;;;;;;16.90;81.50;;;;;;4935788;29;20021;-74
2023/04/10 11:21:59;;;;;;;;;;;17.10;82.10;;;;;;4956662;28;20333;-73
2023/04/10 11:24:25;;;;;;;;;;;17.10;79.20;;;;;;4910567;29;20005;-73
2023/04/10 11:26:50;;;;;;;;;;;17.10;78.90;;;;;;4929255;29;19978;-73
2023/04/10 11:29:16;;;;;;;;;;;17.10;80.50;;;;;;4949808;29;19915;-73
2023/04/10 11:31:45;;;;;;;;;;;17.30;78.90;;;;;;4969417;28;19969;-73
2023/04/10 11:34:11;;;;;;;;;;;17.40;79.10;;;;;;4943234;29;19986;-73
2023/04/10 11:36:37;;;;;;;;;;;17.50;76.20;;;;;;4928830;29;19941;-73
2023/04/10 11:39:13;;;;;;;;;;;17.60;73.30;;;;;;4936210;29;20026;-73
2023/04/10 11:41:39;;;;;;;;;;;17.70;73.40;;;;;;4955992;28;19923;-73
2023/04/10 11:44:05;;;;;;;;;;;17.80;71.10;;;;;;4941392;29;19969;-73
2023/04/10 11:46:34;;;;;;;;;;;17.60;64.60;;;;;;4935380;29;20014;-73
2023/04/10 11:49:02;;;;;;;;;;;17.80;63.60;;;;;;4931589;29;19921;-73
2023/04/10 11:51:28;;;;;;;;;;;17.70;63.40;;;;;;4948459;29;19914;-73
2023/04/10 11:54:07;;;;;;;;;;;17.80;62.40;;;;;;4964450;28;19914;-73
2023/04/10 11:56:34;;;;;;;;;;;17.70;60.20;;;;;;4951873;28;19961;-73
2023/04/10 11:59:01;;;;;;;;;;;17.80;59.90;;;;;;4926196;29;19922;-73
2023/04/10 12:01:27;;;;;;;;;;;17.80;59.20;;;;;;4910663;29;19918;-73
2023/04/10 12:03:52;;;;;;;;;;;17.80;59.00;;;;;;4957141;28;19922;-73
2023/04/10 12:06:18;;;;;;;;;;;17.90;57.70;;;;;;4931893;29;20263;-74
2023/04/10 12:08:46;;;;;;;;;;;18.00;57.10;;;;;;4967232;28;20458;-73
2023/04/10 12:11:12;;;;;;;;;;;17.80;57.70;;;;;;4941077;29;19914;-73
2023/04/10 12:13:37;;;;;;;;;;;17.90;56.70;;;;;;4945021;28;19921;-73
2023/04/10 12:16:04;;;;;;;;;;;18.00;57.40;;;;;;4960052;28;19976;-73
2023/04/10 12:18:30;;;;;;;;;;;18.20;56.60;;;;;;4907735;29;19922;-73
2023/04/10 12:20:56;;;;;;;;;;;18.30;55.70;;;;;;4941947;29;19925;-73
2023/04/10 12:23:22;;;;;;;;;;;18.40;55.30;;;;;;4909141;29;19921;-70
2023/04/10 12:25:48;;;;;;;;;;;18.20;54.90;;;;;;4922764;29;20243;-70
2023/04/10 12:28:20;;;;;;;;;;;18.20;54.50;;;;;;4928965;29;19914;-70
2023/04/10 12:30:47;;;;;;;;;;;18.30;54.00;;;;;;4938092;29;19924;-70
2023/04/10 12:33:12;;;;;;;;;;;18.30;53.90;;;;;;4948161;29;20570;-70
2023/04/10 12:35:38;;;;;;;;;;;18.40;54.60;;;;;;4911481;29;19925;-70
2023/04/10 12:38:04;;;;;;;;;;;18.60;54.20;;;;;;4936816;29;20022;-70
2023/04/10 12:40:30;;;;;;;;;;;18.70;52.50;;;;;;4937370;29;19914;-70
2023/04/10 12:42:56;;;;;;;;;;;18.60;53.80;;;;;;4945527;29;19922;-70
2023/04/10 12:45:39;;;;;;;;;;;18.80;54.00;;;;;;4942966;29;19915;-70
2023/04/10 12:48:05;;;;;;;;;;;18.90;52.40;;;;;;4930415;29;19915;-70
2023/04/10 12:50:31;;;;;;;;;;;18.90;51.20;;;;;;4954284;28;20049;-70
2023/04/10 12:53:05;;;;;;;;;;;18.70;50.10;;;;;;4943543;29;20029;-70
2023/04/10 12:55:32;;;;;;;;;;;18.90;51.30;;;;;;4941551;29;19914;-70
2023/04/10 12:57:57;;;;;;;;;;;19.10;49.90;;;;;;4893911;29;19926;-70
2023/04/10 13:00:23;;;;;;;;;;;19.10;48.20;;;;;;4931646;29;19914;-70
2023/04/10 13:02:49;;;;;;;;;;;18.90;46.90;;;;;;4921673;29;19929;-70
2023/04/10 13:05:15;;;;;;;;;;;19.20;46.40;;;;;;4931555;29;19914;-70
2023/04/10 13:07:41;;;;;;;;;;;19.00;46.90;;;;;;4905335;29;20335;-70
2023/04/10 13:10:07;;;;;;;;;;;19.00;46.40;;;;;;4933360;29;20013;-70
2023/04/10 13:12:33;;;;;;;;;;;19.00;46.00;;;;;;4904031;29;19914;-70
2023/04/10 13:15:00;;;;;;;;;;;19.20;47.50;;;;;;4921907;29;19919;-70
2023/04/10 13:17:26;;;;;;;;;;;19.40;47.10;;;;;;4932315;29;19914;-71
2023/04/10 13:19:51;;;;;;;;;;;19.40;45.70;;;;;;4914471;29;20426;-71
2023/04/10 13:22:17;;;;;;;;;;;19.90;45.40;;;;;;4883994;29;19922;-71
2023/04/10 13:24:43;;;;;;;;;;;20.00;45.30;;;;;;4938162;29;19915;-71
2023/04/10 13:27:09;;;;;;;;;;;19.90;44.30;;;;;;4899319;29;20346;-71
2023/04/10 13:29:35;;;;;;;;;;;20.20;44.20;;;;;;4898926;29;19915;-71
2023/04/10 13:32:04;;;;;;;;;;;20.30;43.10;;;;;;4947269;29;20275;-71
2023/04/10 13:34:30;;;;;;;;;;;19.70;44.70;;;;;;4933982;29;19926;-71
2023/04/10 13:36:55;;;;;;;;;;;19.40;44.50;;;;;;4883660;29;19982;-71
2023/04/10 13:39:21;;;;;;;;;;;19.30;45.50;;;;;;4899222;29;19914;-70
2023/04/10 13:41:47;;;;;;;;;;;19.00;46.20;;;;;;4914800;29;19993;-70
2023/04/10 13:44:12;;;;;;;;;;;19.10;46.10;;;;;;4913112;29;19918;-70
2023/04/10 13:46:38;;;;;;;;;;;18.70;47.00;;;;;;4914976;29;20698;-70
2023/04/10 13:49:04;;;;;;;;;;;18.50;47.90;;;;;;4915112;29;19914;-70
2023/04/10 13:51:29;;;;;;;;;;;18.40;48.60;;;;;;4896926;29;19938;-70
2023/04/10 13:53:57;;;;;;;;;;;18.40;49.40;;;;;;4914494;29;19954;-70
2023/04/10 13:56:26;;;;;;;;;;;18.60;48.70;;;;;;4914954;29;19934;-70
2023/04/10 13:58:51;;;;;;;;;;;18.30;49.50;;;;;;4911797;29;19919;-70
2023/04/10 14:01:17;;;;;;;;;;;18.30;50.20;;;;;;4914605;29;19926;-71
2023/04/10 14:03:43;;;;;;;;;;;18.00;50.30;;;;;;4917881;29;20667;-70
2023/04/10 14:06:08;;;;;;;;;;;18.10;49.50;;;;;;4914068;29;19946;-70
2023/04/10 14:08:34;;;;;;;;;;;17.80;48.90;;;;;;4903177;29;20281;-70
2023/04/10 14:10:59;;;;;;;;;;;17.90;48.80;;;;;;4918301;29;19914;-70
2023/04/10 14:13:26;;;;;;;;;;;17.80;49.30;;;;;;4914658;29;19918;-70
2023/04/10 14:15:52;;;;;;;;;;;17.60;49.50;;;;;;4902932;29;20105;-70
2023/04/10 14:18:18;;;;;;;;;;;17.70;50.30;;;;;;4914970;29;20316;-70
2023/04/10 14:20:44;;;;;;;;;;;17.70;49.40;;;;;;4921930;29;20062;-70